Estación de Remehue INIA

Ultimos registro cada 15 minutos 79
Estación Fecha / Hora Temperatura Humedad Lluvia Velocidad Dirección Radiación Presion
79 Remehue INIA 04-05-2026 19:30 10,8 95,5 0,3 1,1 347 0 1004
78 Remehue INIA 04-05-2026 19:15 10,5 95,9 0 1,2 348 0 1004
77 Remehue INIA 04-05-2026 19:00 10,3 96,7 0 0,4 360 0 1004
76 Remehue INIA 04-05-2026 18:45 10,5 95,7 0 0,1 345 0 1004
75 Remehue INIA 04-05-2026 18:30 10,8 95,4 0 0 0 0 1003
74 Remehue INIA 04-05-2026 18:15 11,1 95,2 0 0,1 337 0 1004
73 Remehue INIA 04-05-2026 18:00 11,2 94,8 0 0 321 0 1003
72 Remehue INIA 04-05-2026 17:45 11,5 93,4 0 0,2 299 4 1003
71 Remehue INIA 04-05-2026 17:30 11,8 92,2 0 0,4 317 15 1003
70 Remehue INIA 04-05-2026 17:15 12 89,7 0 1,1 296 40 1004
69 Remehue INIA 04-05-2026 17:00 12 92,1 0 0,6 261 30 1004
68 Remehue INIA 04-05-2026 16:45 12,2 93,4 0 0,2 251 36 1004
67 Remehue INIA 04-05-2026 16:30 12,3 93 0 0,2 246 29 1003
66 Remehue INIA 04-05-2026 16:15 12,4 92,2 0 0,6 250 41 1003
65 Remehue INIA 04-05-2026 16:00 12,4 93,7 0 0,3 243 98 1003
64 Remehue INIA 04-05-2026 15:45 12,1 95,6 0 0,7 211 62 1003
63 Remehue INIA 04-05-2026 15:30 12,3 95,7 0,2 1,3 187 36 1003
62 Remehue INIA 04-05-2026 15:15 12,4 94,9 0 0,8 235 43 1003
61 Remehue INIA 04-05-2026 15:00 12,4 94,5 0 1,2 275 61 1002
60 Remehue INIA 04-05-2026 14:45 12,5 94,5 0 1,6 289 79 1002
59 Remehue INIA 04-05-2026 14:30 12,4 95,1 0 1,7 288 104 1002
58 Remehue INIA 04-05-2026 14:15 12,3 96,2 0 1,7 292 137 1003
57 Remehue INIA 04-05-2026 14:00 12 96,8 0 1,6 280 151 1003
56 Remehue INIA 04-05-2026 13:45 11,6 97,4 0 1,7 287 120 1003
55 Remehue INIA 04-05-2026 13:30 11,4 97,3 0,1 1,7 284 63 1003
54 Remehue INIA 04-05-2026 13:15 11,4 97,6 0,1 1,5 293 106 1003
53 Remehue INIA 04-05-2026 13:00 11,1 97,7 0,4 1,1 302 77 1003
52 Remehue INIA 04-05-2026 12:45 11 97,3 0,7 1 288 51 1003
51 Remehue INIA 04-05-2026 12:30 11 97 0,2 0,9 299 54 1004
50 Remehue INIA 04-05-2026 12:15 10,9 97,1 0,2 0,3 294 58 1004
49 Remehue INIA 04-05-2026 12:00 10,8 96,8 0,5 0,6 294 53 1004
48 Remehue INIA 04-05-2026 11:45 10,7 96,4 0,2 1,1 281 55 1004
47 Remehue INIA 04-05-2026 11:30 10,5 96,8 0,1 1,4 293 48 1004
46 Remehue INIA 04-05-2026 11:15 10,5 96,4 0,1 1,3 288 50 1004
45 Remehue INIA 04-05-2026 11:00 10,4 96,5 0,1 0,7 281 45 1004
44 Remehue INIA 04-05-2026 10:45 10,3 96,3 0,1 0,7 224 35 1004
43 Remehue INIA 04-05-2026 10:30 10,2 96,2 0,2 1,4 286 42 1004
42 Remehue INIA 04-05-2026 10:15 10,3 96 0 0,8 302 47 1004
41 Remehue INIA 04-05-2026 10:00 10,3 95,8 0,1 0,2 309 38 1004
40 Remehue INIA 04-05-2026 09:45 10,2 95,6 0,1 0,8 304 38 1004
39 Remehue INIA 04-05-2026 09:30 10,2 95 0,1 1,2 294 38 1004
38 Remehue INIA 04-05-2026 09:15 10,2 94,1 0 1,6 292 26 1004
37 Remehue INIA 04-05-2026 09:00 10 94,9 0 0,7 292 19 1004
36 Remehue INIA 04-05-2026 08:45 10 95,5 0 1,2 295 12 1004
35 Remehue INIA 04-05-2026 08:30 9,8 96,6 0 0,6 305 10 1004
34 Remehue INIA 04-05-2026 08:15 9,7 96,8 0 0,3 335 8 1004
33 Remehue INIA 04-05-2026 08:00 9,6 96,8 0 0,6 285 0 1004
32 Remehue INIA 04-05-2026 07:45 9,5 97,2 0 0,1 283 0 1004
31 Remehue INIA 04-05-2026 07:30 9,6 97 0,1 0,1 272 0 1004
30 Remehue INIA 04-05-2026 07:15 9,7 96,7 0 0,5 277 0 1004
29 Remehue INIA 04-05-2026 07:00 9,6 97 0 0,6 290 0 1004
28 Remehue INIA 04-05-2026 06:45 9,6 97,1 0 1,1 293 0 1004
27 Remehue INIA 04-05-2026 06:30 9,7 97,2 0 1,1 280 0 1004
26 Remehue INIA 04-05-2026 06:15 9,6 97,4 0 0,9 275 0 1004
25 Remehue INIA 04-05-2026 06:00 9,6 97,2 0 0,3 282 0 1004
24 Remehue INIA 04-05-2026 05:45 9,6 97,4 0 0,8 286 0 1004
23 Remehue INIA 04-05-2026 05:30 9,6 97,3 0 0,5 257 0 1004
22 Remehue INIA 04-05-2026 05:15 9,6 97,5 0 1,6 282 0 1004
21 Remehue INIA 04-05-2026 05:00 9,4 98,2 0 0,9 285 0 1004
20 Remehue INIA 04-05-2026 04:45 9,4 98,3 0 0,2 291 0 1004
19 Remehue INIA 04-05-2026 04:30 9,3 98,4 0 0,5 294 0 1004
18 Remehue INIA 04-05-2026 04:15 9,1 98,6 0 0,3 318 0 1005
17 Remehue INIA 04-05-2026 04:00 9,2 98,3 0 0 0 0 1005
16 Remehue INIA 04-05-2026 03:45 9,3 98,2 0 0,4 278 0 1005
15 Remehue INIA 04-05-2026 03:30 9,4 98,4 0 0,1 271 0 1005
14 Remehue INIA 04-05-2026 03:15 9,5 98,3 0 0,2 267 0 1005
13 Remehue INIA 04-05-2026 03:00 9,5 98,3 0 0,1 49 0 1005
12 Remehue INIA 04-05-2026 02:45 9,5 98,1 0 0,7 296 0 1005
11 Remehue INIA 04-05-2026 02:30 9,6 98,5 0 1,3 291 0 1005
10 Remehue INIA 04-05-2026 02:15 9,5 98,8 0 1,2 286 0 1005
9 Remehue INIA 04-05-2026 02:00 9,4 98,8 0 0,2 283 0 1006
8 Remehue INIA 04-05-2026 01:45 9,4 98,9 0 0 0 0 1006
7 Remehue INIA 04-05-2026 01:30 9,4 98,9 0 0 0 0 1006
6 Remehue INIA 04-05-2026 01:15 9,5 98,8 0 0 340 0 1006
5 Remehue INIA 04-05-2026 01:00 9,5 98,6 0 0,4 346 0 1006
4 Remehue INIA 04-05-2026 00:45 9,6 98,6 0,1 0,8 333 0 1006
3 Remehue INIA 04-05-2026 00:30 9,7 98,6 0,2 0,2 191 0 1006
2 Remehue INIA 04-05-2026 00:15 9,6 98,6 0,1 0,6 171 0 1006
1 Remehue INIA 04-05-2026 00:00 9,7 98,4 0,1 0,6 185 0 1006